sensor_id;sensor_type;location;lat;lon;timestamp;P1;durP1;ratioP1;P2;durP2;ratioP2
37657;SDS011;23500;53.268;8.308;2024-02-26T00:02:17;6.15;;;5.57;;
37657;SDS011;23500;53.268;8.308;2024-02-26T00:04:43;5.93;;;5.43;;
37657;SDS011;23500;53.268;8.308;2024-02-26T00:07:09;5.80;;;5.18;;
37657;SDS011;23500;53.268;8.308;2024-02-26T00:09:34;6.38;;;5.70;;
37657;SDS011;23500;53.268;8.308;2024-02-26T00:12:02;6.25;;;5.20;;
37657;SDS011;23500;53.268;8.308;2024-02-26T00:14:29;6.18;;;5.57;;
37657;SDS011;23500;53.268;8.308;2024-02-26T00:16:55;6.13;;;5.60;;
37657;SDS011;23500;53.268;8.308;2024-02-26T00:19:21;6.18;;;5.63;;
37657;SDS011;23500;53.268;8.308;2024-02-26T00:21:46;6.00;;;5.40;;
37657;SDS011;23500;53.268;8.308;2024-02-26T00:24:12;6.28;;;5.57;;
37657;SDS011;23500;53.268;8.308;2024-02-26T00:26:38;6.00;;;5.50;;
37657;SDS011;23500;53.268;8.308;2024-02-26T00:29:04;5.88;;;5.25;;
37657;SDS011;23500;53.268;8.308;2024-02-26T00:31:30;5.97;;;5.38;;
37657;SDS011;23500;53.268;8.308;2024-02-26T00:33:56;6.00;;;5.45;;
37657;SDS011;23500;53.268;8.308;2024-02-26T00:36:21;6.07;;;5.57;;
37657;SDS011;23500;53.268;8.308;2024-02-26T00:38:47;5.75;;;5.35;;
37657;SDS011;23500;53.268;8.308;2024-02-26T00:41:19;5.85;;;5.28;;
37657;SDS011;23500;53.268;8.308;2024-02-26T00:43:45;6.05;;;5.53;;
37657;SDS011;23500;53.268;8.308;2024-02-26T00:46:11;6.30;;;5.65;;
37657;SDS011;23500;53.268;8.308;2024-02-26T00:48:37;6.30;;;5.75;;
37657;SDS011;23500;53.268;8.308;2024-02-26T00:51:03;5.72;;;5.22;;
37657;SDS011;23500;53.268;8.308;2024-02-26T00:53:33;5.60;;;5.10;;
37657;SDS011;23500;53.268;8.308;2024-02-26T00:55:59;6.60;;;5.82;;
37657;SDS011;23500;53.268;8.308;2024-02-26T00:58:25;5.50;;;5.00;;
37657;SDS011;23500;53.268;8.308;2024-02-26T01:00:51;5.65;;;5.13;;
37657;SDS011;23500;53.268;8.308;2024-02-26T01:03:17;5.50;;;4.97;;
37657;SDS011;23500;53.268;8.308;2024-02-26T01:05:43;5.80;;;5.20;;
37657;SDS011;23500;53.268;8.308;2024-02-26T01:08:09;5.93;;;5.40;;
37657;SDS011;23500;53.268;8.308;2024-02-26T01:10:35;5.78;;;5.28;;
37657;SDS011;23500;53.268;8.308;2024-02-26T01:13:01;5.85;;;5.35;;
37657;SDS011;23500;53.268;8.308;2024-02-26T01:15:27;5.38;;;4.88;;
37657;SDS011;23500;53.268;8.308;2024-02-26T01:17:52;5.88;;;5.38;;
37657;SDS011;23500;53.268;8.308;2024-02-26T01:20:18;5.70;;;5.20;;
37657;SDS011;23500;53.268;8.308;2024-02-26T01:22:45;6.50;;;5.20;;
37657;SDS011;23500;53.268;8.308;2024-02-26T01:25:12;5.40;;;5.00;;
37657;SDS011;23500;53.268;8.308;2024-02-26T01:27:38;5.45;;;4.95;;
37657;SDS011;23500;53.268;8.308;2024-02-26T01:30:06;5.57;;;5.07;;
37657;SDS011;23500;53.268;8.308;2024-02-26T01:32:32;5.57;;;5.07;;
37657;SDS011;23500;53.268;8.308;2024-02-26T01:34:58;6.03;;;5.40;;
37657;SDS011;23500;53.268;8.308;2024-02-26T01:37:24;5.88;;;5.28;;
37657;SDS011;23500;53.268;8.308;2024-02-26T01:39:49;5.35;;;4.85;;
37657;SDS011;23500;53.268;8.308;2024-02-26T01:42:15;5.78;;;5.05;;
37657;SDS011;23500;53.268;8.308;2024-02-26T01:44:41;5.30;;;4.80;;
37657;SDS011;23500;53.268;8.308;2024-02-26T01:47:07;6.00;;;5.40;;
37657;SDS011;23500;53.268;8.308;2024-02-26T01:49:36;5.03;;;4.63;;
37657;SDS011;23500;53.268;8.308;2024-02-26T01:52:04;5.50;;;5.00;;
37657;SDS011;23500;53.268;8.308;2024-02-26T01:54:31;5.22;;;4.72;;
37657;SDS011;23500;53.268;8.308;2024-02-26T01:56:59;5.60;;;5.10;;
37657;SDS011;23500;53.268;8.308;2024-02-26T01:59:25;5.45;;;5.05;;
37657;SDS011;23500;53.268;8.308;2024-02-26T02:01:52;5.25;;;4.75;;
37657;SDS011;23500;53.268;8.308;2024-02-26T02:04:23;5.35;;;4.88;;
37657;SDS011;23500;53.268;8.308;2024-02-26T02:06:49;5.32;;;4.93;;
37657;SDS011;23500;53.268;8.308;2024-02-26T02:09:17;5.10;;;4.60;;
37657;SDS011;23500;53.268;8.308;2024-02-26T02:11:43;5.32;;;4.82;;
37657;SDS011;23500;53.268;8.308;2024-02-26T02:14:09;5.25;;;4.85;;
37657;SDS011;23500;53.268;8.308;2024-02-26T02:16:35;5.30;;;4.80;;
37657;SDS011;23500;53.268;8.308;2024-02-26T02:19:01;5.30;;;4.80;;
37657;SDS011;23500;53.268;8.308;2024-02-26T02:21:27;5.47;;;4.88;;
37657;SDS011;23500;53.268;8.308;2024-02-26T02:23:52;5.47;;;4.32;;
37657;SDS011;23500;53.268;8.308;2024-02-26T02:26:18;4.95;;;4.45;;
37657;SDS011;23500;53.268;8.308;2024-02-26T02:28:44;5.00;;;4.53;;
37657;SDS011;23500;53.268;8.308;2024-02-26T02:31:11;5.47;;;4.97;;
37657;SDS011;23500;53.268;8.308;2024-02-26T02:33:37;5.75;;;4.75;;
37657;SDS011;23500;53.268;8.308;2024-02-26T02:36:03;5.10;;;4.70;;
37657;SDS011;23500;53.268;8.308;2024-02-26T02:38:29;5.97;;;4.95;;
37657;SDS011;23500;53.268;8.308;2024-02-26T02:40:55;5.00;;;4.60;;
37657;SDS011;23500;53.268;8.308;2024-02-26T02:43:21;4.97;;;4.53;;
37657;SDS011;23500;53.268;8.308;2024-02-26T02:45:47;5.38;;;4.88;;
37657;SDS011;23500;53.268;8.308;2024-02-26T02:48:12;5.38;;;4.88;;
37657;SDS011;23500;53.268;8.308;2024-02-26T02:50:38;4.93;;;4.45;;
37657;SDS011;23500;53.268;8.308;2024-02-26T02:53:04;4.95;;;4.45;;
37657;SDS011;23500;53.268;8.308;2024-02-26T02:55:29;4.82;;;4.43;;
37657;SDS011;23500;53.268;8.308;2024-02-26T02:57:55;5.18;;;4.68;;
37657;SDS011;23500;53.268;8.308;2024-02-26T03:00:21;5.13;;;4.63;;
37657;SDS011;23500;53.268;8.308;2024-02-26T03:02:48;5.03;;;4.53;;
37657;SDS011;23500;53.268;8.308;2024-02-26T03:05:14;4.57;;;4.18;;
37657;SDS011;23500;53.268;8.308;2024-02-26T03:07:40;4.95;;;4.45;;
37657;SDS011;23500;53.268;8.308;2024-02-26T03:10:06;6.72;;;4.88;;
37657;SDS011;23500;53.268;8.308;2024-02-26T03:12:33;5.03;;;4.57;;
37657;SDS011;23500;53.268;8.308;2024-02-26T03:14:59;4.80;;;4.40;;
37657;SDS011;23500;53.268;8.308;2024-02-26T03:17:28;4.60;;;4.20;;
37657;SDS011;23500;53.268;8.308;2024-02-26T03:19:54;4.78;;;4.38;;
37657;SDS011;23500;53.268;8.308;2024-02-26T03:22:20;4.72;;;4.32;;
37657;SDS011;23500;53.268;8.308;2024-02-26T03:24:46;5.18;;;4.35;;
37657;SDS011;23500;53.268;8.308;2024-02-26T03:27:12;4.85;;;4.45;;
37657;SDS011;23500;53.268;8.308;2024-02-26T03:29:38;4.53;;;4.13;;
37657;SDS011;23500;53.268;8.308;2024-02-26T03:32:04;4.72;;;4.32;;
37657;SDS011;23500;53.268;8.308;2024-02-26T03:34:31;4.60;;;4.20;;
37657;SDS011;23500;53.268;8.308;2024-02-26T03:36:59;5.78;;;4.60;;
37657;SDS011;23500;53.268;8.308;2024-02-26T03:39:25;4.80;;;4.40;;
37657;SDS011;23500;53.268;8.308;2024-02-26T03:41:51;4.75;;;4.30;;
37657;SDS011;23500;53.268;8.308;2024-02-26T03:44:17;6.45;;;4.40;;
37657;SDS011;23500;53.268;8.308;2024-02-26T03:46:42;4.70;;;4.28;;
37657;SDS011;23500;53.268;8.308;2024-02-26T03:49:08;5.50;;;4.30;;
37657;SDS011;23500;53.268;8.308;2024-02-26T03:51:34;4.70;;;4.30;;
37657;SDS011;23500;53.268;8.308;2024-02-26T03:54:00;4.90;;;4.50;;
37657;SDS011;23500;53.268;8.308;2024-02-26T03:56:26;4.63;;;4.20;;
37657;SDS011;23500;53.268;8.308;2024-02-26T03:58:52;4.55;;;4.15;;
37657;SDS011;23500;53.268;8.308;2024-02-26T04:01:18;4.78;;;4.38;;
37657;SDS011;23500;53.268;8.308;2024-02-26T04:03:45;4.22;;;3.80;;
37657;SDS011;23500;53.268;8.308;2024-02-26T04:06:11;4.70;;;4.30;;
37657;SDS011;23500;53.268;8.308;2024-02-26T04:08:39;4.70;;;4.30;;
37657;SDS011;23500;53.268;8.308;2024-02-26T04:11:05;4.63;;;4.22;;
37657;SDS011;23500;53.268;8.308;2024-02-26T04:13:35;4.55;;;4.15;;
37657;SDS011;23500;53.268;8.308;2024-02-26T04:16:03;4.65;;;4.22;;
37657;SDS011;23500;53.268;8.308;2024-02-26T04:18:30;4.60;;;4.20;;
37657;SDS011;23500;53.268;8.308;2024-02-26T04:20:56;4.30;;;3.90;;
37657;SDS011;23500;53.268;8.308;2024-02-26T04:23:22;4.05;;;3.75;;
37657;SDS011;23500;53.268;8.308;2024-02-26T04:25:48;4.40;;;4.00;;
37657;SDS011;23500;53.268;8.308;2024-02-26T04:28:14;4.68;;;4.28;;
37657;SDS011;23500;53.268;8.308;2024-02-26T04:30:40;6.95;;;4.30;;
37657;SDS011;23500;53.268;8.308;2024-02-26T04:33:06;4.20;;;3.90;;
37657;SDS011;23500;53.268;8.308;2024-02-26T04:35:32;4.60;;;4.20;;
37657;SDS011;23500;53.268;8.308;2024-02-26T04:37:57;4.35;;;3.95;;
37657;SDS011;23500;53.268;8.308;2024-02-26T04:40:23;3.97;;;3.67;;
37657;SDS011;23500;53.268;8.308;2024-02-26T04:42:49;4.28;;;3.88;;
37657;SDS011;23500;53.268;8.308;2024-02-26T04:45:15;4.70;;;4.30;;
37657;SDS011;23500;53.268;8.308;2024-02-26T04:47:40;4.25;;;3.85;;
37657;SDS011;23500;53.268;8.308;2024-02-26T04:50:07;4.28;;;3.97;;
37657;SDS011;23500;53.268;8.308;2024-02-26T04:52:32;4.10;;;3.75;;
37657;SDS011;23500;53.268;8.308;2024-02-26T04:54:58;4.50;;;4.10;;
37657;SDS011;23500;53.268;8.308;2024-02-26T04:57:25;4.05;;;3.70;;
37657;SDS011;23500;53.268;8.308;2024-02-26T04:59:51;4.18;;;3.88;;
37657;SDS011;23500;53.268;8.308;2024-02-26T05:02:17;4.10;;;3.70;;
37657;SDS011;23500;53.268;8.308;2024-02-26T05:04:42;4.05;;;3.67;;
37657;SDS011;23500;53.268;8.308;2024-02-26T05:07:08;3.80;;;3.50;;
37657;SDS011;23500;53.268;8.308;2024-02-26T05:09:34;5.13;;;4.00;;
37657;SDS011;23500;53.268;8.308;2024-02-26T05:12:00;3.80;;;3.50;;
37657;SDS011;23500;53.268;8.308;2024-02-26T05:14:26;4.38;;;3.67;;
37657;SDS011;23500;53.268;8.308;2024-02-26T05:16:52;4.20;;;3.90;;
37657;SDS011;23500;53.268;8.308;2024-02-26T05:19:18;4.07;;;3.78;;
37657;SDS011;23500;53.268;8.308;2024-02-26T05:21:43;4.38;;;3.97;;
37657;SDS011;23500;53.268;8.308;2024-02-26T05:24:09;4.07;;;3.78;;
37657;SDS011;23500;53.268;8.308;2024-02-26T05:26:35;4.00;;;3.60;;
37657;SDS011;23500;53.268;8.308;2024-02-26T05:29:01;4.05;;;3.70;;
37657;SDS011;23500;53.268;8.308;2024-02-26T05:31:27;4.00;;;3.65;;
37657;SDS011;23500;53.268;8.308;2024-02-26T05:33:53;4.13;;;3.72;;
37657;SDS011;23500;53.268;8.308;2024-02-26T05:36:22;4.10;;;3.70;;
37657;SDS011;23500;53.268;8.308;2024-02-26T05:38:48;4.32;;;3.92;;
37657;SDS011;23500;53.268;8.308;2024-02-26T05:41:17;3.97;;;3.67;;
37657;SDS011;23500;53.268;8.308;2024-02-26T05:43:48;4.00;;;3.70;;
37657;SDS011;23500;53.268;8.308;2024-02-26T05:46:16;4.13;;;3.75;;
37657;SDS011;23500;53.268;8.308;2024-02-26T05:48:43;3.63;;;3.33;;
37657;SDS011;23500;53.268;8.308;2024-02-26T05:51:09;3.75;;;3.38;;
37657;SDS011;23500;53.268;8.308;2024-02-26T05:53:35;4.00;;;3.70;;
37657;SDS011;23500;53.268;8.308;2024-02-26T05:56:00;4.03;;;3.67;;
37657;SDS011;23500;53.268;8.308;2024-02-26T05:58:26;3.70;;;3.40;;
37657;SDS011;23500;53.268;8.308;2024-02-26T06:00:52;3.70;;;3.40;;
37657;SDS011;23500;53.268;8.308;2024-02-26T06:03:17;3.85;;;3.55;;
37657;SDS011;23500;53.268;8.308;2024-02-26T06:05:43;4.20;;;3.60;;
37657;SDS011;23500;53.268;8.308;2024-02-26T06:08:09;3.90;;;3.60;;
37657;SDS011;23500;53.268;8.308;2024-02-26T06:10:34;5.03;;;3.50;;
37657;SDS011;23500;53.268;8.308;2024-02-26T06:13:00;3.95;;;3.60;;
37657;SDS011;23500;53.268;8.308;2024-02-26T06:15:26;3.70;;;3.40;;
37657;SDS011;23500;53.268;8.308;2024-02-26T06:17:51;3.63;;;3.30;;
37657;SDS011;23500;53.268;8.308;2024-02-26T06:20:17;3.50;;;3.30;;
37657;SDS011;23500;53.268;8.308;2024-02-26T06:22:43;4.10;;;3.70;;
37657;SDS011;23500;53.268;8.308;2024-02-26T06:25:09;3.38;;;3.08;;
37657;SDS011;23500;53.268;8.308;2024-02-26T06:27:35;3.95;;;3.65;;
37657;SDS011;23500;53.268;8.308;2024-02-26T06:30:01;3.72;;;3.42;;
37657;SDS011;23500;53.268;8.308;2024-02-26T06:32:27;3.92;;;3.63;;
37657;SDS011;23500;53.268;8.308;2024-02-26T06:34:55;3.20;;;2.90;;
37657;SDS011;23500;53.268;8.308;2024-02-26T06:37:21;3.40;;;3.10;;
37657;SDS011;23500;53.268;8.308;2024-02-26T06:39:47;3.75;;;3.45;;
37657;SDS011;23500;53.268;8.308;2024-02-26T06:42:13;3.95;;;3.63;;
37657;SDS011;23500;53.268;8.308;2024-02-26T06:44:39;3.70;;;3.40;;
37657;SDS011;23500;53.268;8.308;2024-02-26T06:47:05;4.70;;;3.90;;
37657;SDS011;23500;53.268;8.308;2024-02-26T06:49:30;3.70;;;3.40;;
37657;SDS011;23500;53.268;8.308;2024-02-26T06:51:56;3.40;;;3.10;;
37657;SDS011;23500;53.268;8.308;2024-02-26T06:54:22;3.70;;;3.42;;
37657;SDS011;23500;53.268;8.308;2024-02-26T06:56:48;3.28;;;3.03;;
37657;SDS011;23500;53.268;8.308;2024-02-26T06:59:13;2.90;;;2.70;;
37657;SDS011;23500;53.268;8.308;2024-02-26T07:01:40;3.63;;;3.10;;
37657;SDS011;23500;53.268;8.308;2024-02-26T07:04:06;3.28;;;2.97;;
37657;SDS011;23500;53.268;8.308;2024-02-26T07:06:32;3.17;;;2.97;;
37657;SDS011;23500;53.268;8.308;2024-02-26T07:08:58;3.15;;;2.85;;
37657;SDS011;23500;53.268;8.308;2024-02-26T07:11:24;3.40;;;2.65;;
37657;SDS011;23500;53.268;8.308;2024-02-26T07:13:49;3.35;;;2.88;;
37657;SDS011;23500;53.268;8.308;2024-02-26T07:16:15;3.00;;;2.72;;
37657;SDS011;23500;53.268;8.308;2024-02-26T07:18:41;3.40;;;2.65;;
37657;SDS011;23500;53.268;8.308;2024-02-26T07:21:08;3.03;;;2.72;;
37657;SDS011;23500;53.268;8.308;2024-02-26T07:23:35;2.92;;;2.70;;
37657;SDS011;23500;53.268;8.308;2024-02-26T07:26:01;3.40;;;2.90;;
37657;SDS011;23500;53.268;8.308;2024-02-26T07:28:26;2.63;;;2.42;;
37657;SDS011;23500;53.268;8.308;2024-02-26T07:30:52;3.10;;;2.67;;
37657;SDS011;23500;53.268;8.308;2024-02-26T07:33:17;3.72;;;2.65;;
37657;SDS011;23500;53.268;8.308;2024-02-26T07:35:43;4.03;;;2.72;;
37657;SDS011;23500;53.268;8.308;2024-02-26T07:38:09;3.15;;;2.42;;
37657;SDS011;23500;53.268;8.308;2024-02-26T07:40:35;3.28;;;2.55;;
37657;SDS011;23500;53.268;8.308;2024-02-26T07:43:01;3.15;;;2.85;;
37657;SDS011;23500;53.268;8.308;2024-02-26T07:45:27;3.00;;;2.67;;
37657;SDS011;23500;53.268;8.308;2024-02-26T07:47:52;2.90;;;2.60;;
37657;SDS011;23500;53.268;8.308;2024-02-26T07:50:18;3.10;;;2.55;;
37657;SDS011;23500;53.268;8.308;2024-02-26T07:52:44;2.95;;;2.75;;
37657;SDS011;23500;53.268;8.308;2024-02-26T07:55:10;2.75;;;2.55;;
37657;SDS011;23500;53.268;8.308;2024-02-26T07:57:36;3.10;;;2.80;;
37657;SDS011;23500;53.268;8.308;2024-02-26T08:00:02;3.08;;;2.63;;
37657;SDS011;23500;53.268;8.308;2024-02-26T08:02:29;3.75;;;2.45;;
37657;SDS011;23500;53.268;8.308;2024-02-26T08:04:54;5.00;;;2.80;;
37657;SDS011;23500;53.268;8.308;2024-02-26T08:07:20;4.22;;;2.63;;
37657;SDS011;23500;53.268;8.308;2024-02-26T08:09:46;2.72;;;2.53;;
37657;SDS011;23500;53.268;8.308;2024-02-26T08:12:12;3.60;;;2.60;;
37657;SDS011;23500;53.268;8.308;2024-02-26T08:14:38;2.83;;;2.63;;
37657;SDS011;23500;53.268;8.308;2024-02-26T08:17:03;2.60;;;2.40;;
37657;SDS011;23500;53.268;8.308;2024-02-26T08:19:29;5.90;;;2.63;;
37657;SDS011;23500;53.268;8.308;2024-02-26T08:21:55;3.20;;;2.90;;
37657;SDS011;23500;53.268;8.308;2024-02-26T08:24:21;3.63;;;2.60;;
37657;SDS011;23500;53.268;8.308;2024-02-26T08:26:48;5.53;;;2.70;;
37657;SDS011;23500;53.268;8.308;2024-02-26T08:29:13;3.75;;;2.60;;
37657;SDS011;23500;53.268;8.308;2024-02-26T08:31:39;3.33;;;2.42;;
37657;SDS011;23500;53.268;8.308;2024-02-26T08:34:04;3.67;;;2.53;;
37657;SDS011;23500;53.268;8.308;2024-02-26T08:36:31;3.75;;;2.67;;
37657;SDS011;23500;53.268;8.308;2024-02-26T08:38:58;2.80;;;2.47;;
37657;SDS011;23500;53.268;8.308;2024-02-26T08:41:24;2.80;;;2.60;;
37657;SDS011;23500;53.268;8.308;2024-02-26T08:43:50;2.35;;;2.13;;
37657;SDS011;23500;53.268;8.308;2024-02-26T08:46:15;4.20;;;2.35;;
37657;SDS011;23500;53.268;8.308;2024-02-26T08:48:41;3.97;;;2.05;;
37657;SDS011;23500;53.268;8.308;2024-02-26T08:51:07;2.42;;;2.22;;
37657;SDS011;23500;53.268;8.308;2024-02-26T08:53:34;5.00;;;2.28;;
37657;SDS011;23500;53.268;8.308;2024-02-26T08:56:03;2.20;;;2.00;;
37657;SDS011;23500;53.268;8.308;2024-02-26T08:58:29;3.58;;;1.90;;
37657;SDS011;23500;53.268;8.308;2024-02-26T09:00:55;2.13;;;1.92;;
37657;SDS011;23500;53.268;8.308;2024-02-26T09:03:21;2.15;;;1.95;;
37657;SDS011;23500;53.268;8.308;2024-02-26T09:05:47;3.15;;;2.20;;
37657;SDS011;23500;53.268;8.308;2024-02-26T09:08:12;3.03;;;2.00;;
37657;SDS011;23500;53.268;8.308;2024-02-26T09:10:38;2.38;;;1.90;;
37657;SDS011;23500;53.268;8.308;2024-02-26T09:13:04;2.95;;;2.00;;
37657;SDS011;23500;53.268;8.308;2024-02-26T09:15:30;2.97;;;1.77;;
37657;SDS011;23500;53.268;8.308;2024-02-26T09:17:56;4.32;;;1.88;;
37657;SDS011;23500;53.268;8.308;2024-02-26T09:20:22;2.05;;;1.85;;
37657;SDS011;23500;53.268;8.308;2024-02-26T09:22:48;3.63;;;2.08;;
37657;SDS011;23500;53.268;8.308;2024-02-26T09:25:15;2.10;;;1.90;;
37657;SDS011;23500;53.268;8.308;2024-02-26T09:27:42;2.22;;;1.70;;
37657;SDS011;23500;53.268;8.308;2024-02-26T09:30:11;2.40;;;1.90;;
37657;SDS011;23500;53.268;8.308;2024-02-26T09:32:38;2.22;;;1.70;;
37657;SDS011;23500;53.268;8.308;2024-02-26T09:35:04;2.55;;;1.80;;
37657;SDS011;23500;53.268;8.308;2024-02-26T09:37:30;2.60;;;1.80;;
37657;SDS011;23500;53.268;8.308;2024-02-26T09:39:56;2.40;;;1.70;;
37657;SDS011;23500;53.268;8.308;2024-02-26T09:42:24;2.60;;;1.92;;
37657;SDS011;23500;53.268;8.308;2024-02-26T09:44:51;2.10;;;1.90;;
37657;SDS011;23500;53.268;8.308;2024-02-26T09:47:23;2.13;;;1.92;;
37657;SDS011;23500;53.268;8.308;2024-02-26T09:49:50;2.00;;;1.80;;
37657;SDS011;23500;53.268;8.308;2024-02-26T09:52:18;3.95;;;1.70;;
37657;SDS011;23500;53.268;8.308;2024-02-26T09:54:48;2.05;;;1.80;;
37657;SDS011;23500;53.268;8.308;2024-02-26T09:57:13;1.88;;;1.70;;
37657;SDS011;23500;53.268;8.308;2024-02-26T09:59:42;2.05;;;1.80;;
37657;SDS011;23500;53.268;8.308;2024-02-26T10:02:09;2.08;;;1.80;;
37657;SDS011;23500;53.268;8.308;2024-02-26T10:04:38;1.98;;;1.67;;
37657;SDS011;23500;53.268;8.308;2024-02-26T10:07:07;2.60;;;1.52;;
37657;SDS011;23500;53.268;8.308;2024-02-26T10:09:36;1.80;;;1.70;;
37657;SDS011;23500;53.268;8.308;2024-02-26T10:12:03;3.33;;;1.45;;
37657;SDS011;23500;53.268;8.308;2024-02-26T10:14:30;1.75;;;1.65;;
37657;SDS011;23500;53.268;8.308;2024-02-26T10:16:56;3.08;;;1.63;;
37657;SDS011;23500;53.268;8.308;2024-02-26T10:19:28;1.80;;;1.70;;
37657;SDS011;23500;53.268;8.308;2024-02-26T10:21:58;2.92;;;1.70;;
37657;SDS011;23500;53.268;8.308;2024-02-26T10:24:25;1.77;;;1.60;;
37657;SDS011;23500;53.268;8.308;2024-02-26T10:26:52;1.80;;;1.60;;
37657;SDS011;23500;53.268;8.308;2024-02-26T10:29:19;1.77;;;1.60;;
37657;SDS011;23500;53.268;8.308;2024-02-26T10:31:46;1.58;;;1.48;;
37657;SDS011;23500;53.268;8.308;2024-02-26T10:34:11;2.25;;;1.83;;
37657;SDS011;23500;53.268;8.308;2024-02-26T10:36:38;2.85;;;1.58;;
37657;SDS011;23500;53.268;8.308;2024-02-26T10:39:07;1.60;;;1.50;;
37657;SDS011;23500;53.268;8.308;2024-02-26T10:41:33;2.05;;;1.85;;
37657;SDS011;23500;53.268;8.308;2024-02-26T10:43:59;1.90;;;1.50;;
37657;SDS011;23500;53.268;8.308;2024-02-26T10:46:25;1.70;;;1.60;;
37657;SDS011;23500;53.268;8.308;2024-02-26T10:48:51;1.65;;;1.55;;
37657;SDS011;23500;53.268;8.308;2024-02-26T10:51:20;2.50;;;1.80;;
37657;SDS011;23500;53.268;8.308;2024-02-26T10:53:51;2.53;;;1.67;;
37657;SDS011;23500;53.268;8.308;2024-02-26T10:56:24;1.90;;;1.40;;
37657;SDS011;23500;53.268;8.308;2024-02-26T10:58:52;1.70;;;1.60;;
37657;SDS011;23500;53.268;8.308;2024-02-26T11:01:19;1.40;;;1.30;;
37657;SDS011;23500;53.268;8.308;2024-02-26T11:03:50;1.70;;;1.60;;
37657;SDS011;23500;53.268;8.308;2024-02-26T11:06:17;2.03;;;1.70;;
37657;SDS011;23500;53.268;8.308;2024-02-26T11:08:51;1.60;;;1.50;;
37657;SDS011;23500;53.268;8.308;2024-02-26T11:11:17;1.88;;;1.70;;
37657;SDS011;23500;53.268;8.308;2024-02-26T11:13:48;2.33;;;1.42;;
37657;SDS011;23500;53.268;8.308;2024-02-26T11:16:19;1.92;;;1.70;;
37657;SDS011;23500;53.268;8.308;2024-02-26T11:18:47;2.35;;;1.70;;
37657;SDS011;23500;53.268;8.308;2024-02-26T11:21:16;1.98;;;1.88;;
37657;SDS011;23500;53.268;8.308;2024-02-26T11:23:44;4.90;;;2.20;;
37657;SDS011;23500;53.268;8.308;2024-02-26T11:26:11;1.90;;;1.67;;
37657;SDS011;23500;53.268;8.308;2024-02-26T11:28:38;2.00;;;1.67;;
37657;SDS011;23500;53.268;8.308;2024-02-26T11:31:05;1.70;;;1.60;;
37657;SDS011;23500;53.268;8.308;2024-02-26T11:33:32;2.35;;;1.52;;
37657;SDS011;23500;53.268;8.308;2024-02-26T11:36:01;1.40;;;1.30;;
37657;SDS011;23500;53.268;8.308;2024-02-26T11:38:27;1.90;;;1.70;;
37657;SDS011;23500;53.268;8.308;2024-02-26T11:40:54;2.50;;;1.73;;
37657;SDS011;23500;53.268;8.308;2024-02-26T11:43:23;1.90;;;1.50;;
37657;SDS011;23500;53.268;8.308;2024-02-26T11:46:24;1.85;;;1.65;;
37657;SDS011;23500;53.268;8.308;2024-02-26T11:49:02;1.73;;;1.35;;
37657;SDS011;23500;53.268;8.308;2024-02-26T11:51:32;2.03;;;1.92;;
37657;SDS011;23500;53.268;8.308;2024-02-26T11:53:59;2.38;;;2.00;;
37657;SDS011;23500;53.268;8.308;2024-02-26T11:56:25;1.73;;;1.60;;
37657;SDS011;23500;53.268;8.308;2024-02-26T11:59:04;3.60;;;1.65;;
37657;SDS011;23500;53.268;8.308;2024-02-26T12:01:44;3.60;;;1.65;;
37657;SDS011;23500;53.268;8.308;2024-02-26T12:06:55;5.65;;;1.67;;
37657;SDS011;23500;53.268;8.308;2024-02-26T12:11:56;2.33;;;1.60;;
37657;SDS011;23500;53.268;8.308;2024-02-26T12:14:25;4.72;;;1.98;;
37657;SDS011;23500;53.268;8.308;2024-02-26T12:16:51;5.20;;;1.65;;
37657;SDS011;23500;53.268;8.308;2024-02-26T12:19:18;2.50;;;1.60;;
37657;SDS011;23500;53.268;8.308;2024-02-26T12:21:44;2.38;;;1.50;;
37657;SDS011;23500;53.268;8.308;2024-02-26T12:24:10;4.78;;;1.60;;
37657;SDS011;23500;53.268;8.308;2024-02-26T12:26:37;3.13;;;1.35;;
37657;SDS011;23500;53.268;8.308;2024-02-26T12:29:04;2.15;;;1.30;;
37657;SDS011;23500;53.268;8.308;2024-02-26T12:31:30;2.78;;;1.55;;
37657;SDS011;23500;53.268;8.308;2024-02-26T12:33:57;3.30;;;1.60;;
37657;SDS011;23500;53.268;8.308;2024-02-26T12:36:23;3.08;;;1.42;;
37657;SDS011;23500;53.268;8.308;2024-02-26T12:38:50;2.75;;;1.45;;
37657;SDS011;23500;53.268;8.308;2024-02-26T12:41:16;2.55;;;1.65;;
37657;SDS011;23500;53.268;8.308;2024-02-26T12:43:42;2.53;;;1.38;;
37657;SDS011;23500;53.268;8.308;2024-02-26T12:46:08;2.58;;;1.40;;
37657;SDS011;23500;53.268;8.308;2024-02-26T12:48:33;3.20;;;1.40;;
37657;SDS011;23500;53.268;8.308;2024-02-26T12:50:59;3.72;;;1.50;;
37657;SDS011;23500;53.268;8.308;2024-02-26T12:53:26;2.60;;;1.40;;
37657;SDS011;23500;53.268;8.308;2024-02-26T12:55:53;1.40;;;1.27;;
37657;SDS011;23500;53.268;8.308;2024-02-26T12:58:20;2.95;;;1.70;;
37657;SDS011;23500;53.268;8.308;2024-02-26T13:00:50;2.58;;;1.85;;
37657;SDS011;23500;53.268;8.308;2024-02-26T13:03:17;2.05;;;1.63;;
37657;SDS011;23500;53.268;8.308;2024-02-26T13:05:44;2.05;;;1.50;;
37657;SDS011;23500;53.268;8.308;2024-02-26T13:08:17;1.67;;;1.40;;
37657;SDS011;23500;53.268;8.308;2024-02-26T13:10:43;3.35;;;1.30;;
37657;SDS011;23500;53.268;8.308;2024-02-26T13:13:11;1.48;;;1.38;;
37657;SDS011;23500;53.268;8.308;2024-02-26T13:15:39;1.73;;;1.25;;
37657;SDS011;23500;53.268;8.308;2024-02-26T13:18:09;1.30;;;1.20;;
37657;SDS011;23500;53.268;8.308;2024-02-26T13:20:36;2.35;;;1.10;;
37657;SDS011;23500;53.268;8.308;2024-02-26T13:23:05;2.35;;;1.30;;
37657;SDS011;23500;53.268;8.308;2024-02-26T13:25:32;1.02;;;1.00;;
37657;SDS011;23500;53.268;8.308;2024-02-26T13:30:41;2.85;;;1.58;;
37657;SDS011;23500;53.268;8.308;2024-02-26T13:33:15;3.42;;;1.33;;
37657;SDS011;23500;53.268;8.308;2024-02-26T13:35:41;1.55;;;1.25;;
37657;SDS011;23500;53.268;8.308;2024-02-26T13:38:06;4.82;;;1.30;;
37657;SDS011;23500;53.268;8.308;2024-02-26T13:40:32;2.95;;;1.58;;
37657;SDS011;23500;53.268;8.308;2024-02-26T13:42:59;2.60;;;1.58;;
37657;SDS011;23500;53.268;8.308;2024-02-26T13:45:25;4.85;;;1.48;;
37657;SDS011;23500;53.268;8.308;2024-02-26T13:47:51;3.53;;;1.60;;
37657;SDS011;23500;53.268;8.308;2024-02-26T13:50:17;3.03;;;1.55;;
37657;SDS011;23500;53.268;8.308;2024-02-26T13:52:46;2.13;;;1.40;;
37657;SDS011;23500;53.268;8.308;2024-02-26T13:55:12;2.78;;;1.33;;
37657;SDS011;23500;53.268;8.308;2024-02-26T13:57:39;2.47;;;1.60;;
37657;SDS011;23500;53.268;8.308;2024-02-26T14:00:05;2.92;;;1.50;;
37657;SDS011;23500;53.268;8.308;2024-02-26T14:02:34;2.53;;;1.60;;
37657;SDS011;23500;53.268;8.308;2024-02-26T14:05:01;2.78;;;1.40;;
37657;SDS011;23500;53.268;8.308;2024-02-26T14:07:30;2.80;;;1.45;;
37657;SDS011;23500;53.268;8.308;2024-02-26T14:09:59;1.45;;;1.30;;
37657;SDS011;23500;53.268;8.308;2024-02-26T14:12:24;2.15;;;1.45;;
37657;SDS011;23500;53.268;8.308;2024-02-26T14:14:50;1.92;;;1.70;;
37657;SDS011;23500;53.268;8.308;2024-02-26T14:17:19;1.75;;;1.65;;
37657;SDS011;23500;53.268;8.308;2024-02-26T14:19:44;1.80;;;1.52;;
37657;SDS011;23500;53.268;8.308;2024-02-26T14:22:12;2.10;;;1.50;;
37657;SDS011;23500;53.268;8.308;2024-02-26T14:24:38;3.42;;;1.45;;
37657;SDS011;23500;53.268;8.308;2024-02-26T14:27:04;1.70;;;1.60;;
37657;SDS011;23500;53.268;8.308;2024-02-26T14:29:32;2.28;;;1.60;;
37657;SDS011;23500;53.268;8.308;2024-02-26T14:31:58;1.83;;;1.70;;
37657;SDS011;23500;53.268;8.308;2024-02-26T14:34:24;2.00;;;1.45;;
37657;SDS011;23500;53.268;8.308;2024-02-26T14:36:49;2.15;;;1.95;;
37657;SDS011;23500;53.268;8.308;2024-02-26T14:39:15;3.00;;;1.65;;
37657;SDS011;23500;53.268;8.308;2024-02-26T14:41:41;2.15;;;1.60;;
37657;SDS011;23500;53.268;8.308;2024-02-26T14:44:07;1.58;;;1.45;;
37657;SDS011;23500;53.268;8.308;2024-02-26T14:46:33;1.92;;;1.60;;
37657;SDS011;23500;53.268;8.308;2024-02-26T14:48:59;2.90;;;1.80;;
37657;SDS011;23500;53.268;8.308;2024-02-26T14:51:25;2.00;;;1.80;;
37657;SDS011;23500;53.268;8.308;2024-02-26T14:53:50;1.98;;;1.80;;